createdAt,value
2022-11-09T00:01:31.156Z,2.31
2022-11-09T00:03:59.860Z,2.32
2022-11-09T00:06:27.779Z,2.29
2022-11-09T00:08:56.356Z,2.26
2022-11-09T00:11:24.393Z,2.28
2022-11-09T00:13:51.963Z,2.30
2022-11-09T00:16:20.563Z,2.31
2022-11-09T00:18:51.937Z,2.29
2022-11-09T00:21:24.455Z,2.30
2022-11-09T00:23:52.614Z,2.32
2022-11-09T00:26:21.188Z,2.31
2022-11-09T00:28:49.595Z,2.34
2022-11-09T00:31:19.570Z,2.39
2022-11-09T00:33:53.375Z,2.42
2022-11-09T00:36:21.487Z,2.44
2022-11-09T00:38:54.210Z,2.43
2022-11-09T00:41:21.949Z,2.43
2022-11-09T00:43:50.267Z,2.43
2022-11-09T00:46:19.350Z,2.47
2022-11-09T00:48:47.856Z,2.45
2022-11-09T00:51:15.852Z,2.43
2022-11-09T00:53:43.727Z,2.44
2022-11-09T00:56:12.308Z,2.46
2022-11-09T00:58:41.147Z,2.50
2022-11-09T01:01:14.558Z,2.48
2022-11-09T01:03:44.307Z,2.51
2022-11-09T01:06:20.376Z,2.51
2022-11-09T01:08:48.335Z,2.49
2022-11-09T01:11:16.941Z,2.47
2022-11-09T01:13:44.644Z,2.48
2022-11-09T01:16:14.755Z,2.45
2022-11-09T01:18:42.385Z,2.42
2022-11-09T01:21:11.521Z,2.37
2022-11-09T01:23:39.651Z,2.23
2022-11-09T01:26:08.450Z,2.25
2022-11-09T01:28:36.147Z,2.29
2022-11-09T01:31:07.328Z,2.30
2022-11-09T01:33:35.778Z,2.33
2022-11-09T01:36:08.864Z,2.32
2022-11-09T01:38:37.906Z,2.37
2022-11-09T01:41:06.335Z,2.41
2022-11-09T01:43:35.452Z,2.44
2022-11-09T01:46:09.777Z,2.46
2022-11-09T01:48:41.233Z,2.49
2022-11-09T01:51:19.770Z,2.50
2022-11-09T01:53:49.264Z,2.48
2022-11-09T01:56:17.377Z,2.50
2022-11-09T01:58:50.975Z,2.48
2022-11-09T02:01:18.755Z,2.51
2022-11-09T02:04:11.636Z,2.48
2022-11-09T02:06:41.036Z,2.51
2022-11-09T02:09:49.183Z,2.50
2022-11-09T02:12:18.334Z,2.52
2022-11-09T02:14:48.479Z,2.59
2022-11-09T02:17:17.110Z,2.57
2022-11-09T02:19:45.731Z,2.56
2022-11-09T02:22:14.195Z,2.60
2022-11-09T02:24:41.858Z,2.55
2022-11-09T02:27:09.643Z,2.54
2022-11-09T02:29:42.459Z,2.51
2022-11-09T02:32:12.779Z,2.46
2022-11-09T02:34:41.100Z,2.41
2022-11-09T02:37:09.098Z,2.30
2022-11-09T02:39:37.576Z,2.21
2022-11-09T02:42:11.402Z,2.21
2022-11-09T02:44:48.359Z,2.24
2022-11-09T02:47:16.216Z,2.24
2022-11-09T02:49:46.616Z,2.19
2022-11-09T02:52:14.197Z,2.18
2022-11-09T02:54:42.265Z,2.23
2022-11-09T02:57:09.953Z,2.28
2022-11-09T02:59:40.218Z,2.23
2022-11-09T03:02:07.917Z,2.20
2022-11-09T03:04:37.624Z,2.23
2022-11-09T03:07:06.128Z,2.23
2022-11-09T03:09:33.952Z,2.25
2022-11-09T03:12:24.908Z,2.28
2022-11-09T03:14:52.961Z,2.22
2022-11-09T03:17:21.852Z,2.15
2022-11-09T03:19:49.432Z,2.10
2022-11-09T03:22:17.968Z,2.10
2022-11-09T03:24:47.464Z,2.07
2022-11-09T03:27:16.314Z,2.01
2022-11-09T03:29:47.346Z,1.91
2022-11-09T03:32:15.782Z,1.95
2022-11-09T03:34:43.473Z,1.95
2022-11-09T03:37:13.787Z,1.98
2022-11-09T03:39:42.664Z,2.00
2022-11-09T03:42:10.338Z,1.91
2022-11-09T03:44:40.623Z,1.88
2022-11-09T03:47:08.387Z,1.97
2022-11-09T03:49:38.780Z,1.85
2022-11-09T03:52:06.635Z,1.85
2022-11-09T03:54:34.154Z,1.85
2022-11-09T03:57:01.884Z,1.90
2022-11-09T03:59:29.620Z,1.75
2022-11-09T04:01:57.719Z,1.78
2022-11-09T04:04:25.347Z,1.81
2022-11-09T04:06:52.988Z,1.84
2022-11-09T04:09:20.585Z,1.85
2022-11-09T04:11:49.088Z,1.82
2022-11-09T04:14:16.643Z,1.74
2022-11-09T04:16:44.499Z,1.73
2022-11-09T04:19:12.608Z,1.70
2022-11-09T04:21:40.436Z,1.73
2022-11-09T04:24:08.013Z,1.65
2022-11-09T04:26:35.574Z,1.62
2022-11-09T04:29:03.228Z,1.59
2022-11-09T04:31:31.080Z,1.64
2022-11-09T04:33:58.572Z,1.63
2022-11-09T04:36:26.177Z,1.59
2022-11-09T04:38:53.698Z,1.59
2022-11-09T04:41:21.585Z,1.61
2022-11-09T04:43:49.221Z,1.57
2022-11-09T04:46:17.339Z,1.63
2022-11-09T04:48:44.847Z,1.59
2022-11-09T04:51:13.096Z,1.58
2022-11-09T04:53:42.359Z,1.56
2022-11-09T04:56:10.031Z,1.53
2022-11-09T04:58:38.014Z,1.63
2022-11-09T05:01:11.945Z,1.68
2022-11-09T05:03:40.389Z,1.71
2022-11-09T05:06:26.917Z,1.68
2022-11-09T05:08:55.259Z,1.74
2022-11-09T05:11:23.354Z,1.82
2022-11-09T05:13:54.134Z,1.82
2022-11-09T05:16:23.255Z,1.79
2022-11-09T05:18:51.006Z,1.76
2022-11-09T05:21:18.671Z,1.81
2022-11-09T05:24:02.638Z,1.84
2022-11-09T05:26:30.193Z,1.75
2022-11-09T05:28:59.292Z,1.76
2022-11-09T05:31:27.373Z,1.73
2022-11-09T05:33:55.180Z,1.70
2022-11-09T05:36:23.310Z,1.71
2022-11-09T05:38:52.913Z,1.72
2022-11-09T05:41:21.072Z,1.64
2022-11-09T05:43:49.222Z,1.72
2022-11-09T05:46:17.470Z,1.84
2022-11-09T05:48:45.293Z,1.86
2022-11-09T05:51:13.956Z,1.91
2022-11-09T05:53:46.101Z,1.91
2022-11-09T05:56:14.795Z,1.86
2022-11-09T05:58:42.724Z,1.99
2022-11-09T06:01:13.848Z,2.00
2022-11-09T06:03:42.594Z,1.97
2022-11-09T06:06:11.568Z,1.97
2022-11-09T06:08:39.146Z,1.85
2022-11-09T06:11:08.853Z,1.76
2022-11-09T06:13:36.731Z,1.82
2022-11-09T06:16:05.981Z,1.86
2022-11-09T06:18:34.169Z,1.85
2022-11-09T06:21:05.425Z,1.96
2022-11-09T06:23:34.472Z,1.96
2022-11-09T06:26:11.807Z,2.10
2022-11-09T06:28:39.995Z,2.14
2022-11-09T06:31:14.659Z,2.20
2022-11-09T06:33:42.299Z,2.24
2022-11-09T06:36:10.664Z,2.23
2022-11-09T06:38:38.512Z,2.34
2022-11-09T06:41:06.160Z,2.30
2022-11-09T06:43:33.763Z,2.42
2022-11-09T06:46:04.031Z,2.46
2022-11-09T06:48:31.625Z,2.50
2022-11-09T06:51:00.829Z,2.64
2022-11-09T06:53:30.044Z,2.76
2022-11-09T06:55:59.140Z,2.82
2022-11-09T06:58:26.782Z,3.03
2022-11-09T07:00:55.823Z,3.01
2022-11-09T07:03:24.046Z,3.07
2022-11-09T07:05:53.439Z,3.32
2022-11-09T07:08:21.293Z,3.37
2022-11-09T07:10:49.087Z,3.37
2022-11-09T07:13:16.882Z,3.32
2022-11-09T07:15:45.223Z,3.43
2022-11-09T07:18:13.335Z,3.47
2022-11-09T07:20:41.245Z,3.53
2022-11-09T07:23:11.625Z,3.56
2022-11-09T07:25:39.115Z,3.60
2022-11-09T07:28:08.612Z,3.60
2022-11-09T07:30:37.074Z,3.74
2022-11-09T07:33:15.472Z,3.74
2022-11-09T07:35:43.660Z,3.78
2022-11-09T07:38:15.993Z,3.80
2022-11-09T07:40:44.748Z,3.74
2022-11-09T07:43:12.905Z,3.73
2022-11-09T07:45:41.725Z,3.88
2022-11-09T07:48:10.760Z,3.94
2022-11-09T07:50:39.414Z,4.08
2022-11-09T07:53:07.616Z,4.11
2022-11-09T07:55:35.585Z,4.11
2022-11-09T07:58:08.526Z,4.12
2022-11-09T08:00:37.297Z,4.26
2022-11-09T08:03:05.184Z,4.22
2022-11-09T08:05:33.372Z,3.96
2022-11-09T08:08:04.309Z,3.56
2022-11-09T08:10:32.307Z,3.82
2022-11-09T08:13:08.604Z,3.99
2022-11-09T08:15:36.592Z,4.12
2022-11-09T08:18:06.519Z,4.15
2022-11-09T08:20:34.589Z,4.30
2022-11-09T08:23:04.907Z,4.37
2022-11-09T08:25:35.444Z,4.33
2022-11-09T08:28:03.722Z,4.47
2022-11-09T08:30:31.601Z,4.35
2022-11-09T08:33:00.460Z,4.36
2022-11-09T08:35:29.232Z,4.48
2022-11-09T08:37:56.967Z,4.55
2022-11-09T08:40:25.698Z,4.65
2022-11-09T08:42:53.920Z,4.74
2022-11-09T08:45:21.513Z,4.76
2022-11-09T08:47:50.230Z,4.95
2022-11-09T08:50:18.860Z,4.81
2022-11-09T08:52:46.564Z,4.90
2022-11-09T08:55:14.375Z,5.12
2022-11-09T08:57:41.981Z,5.04
2022-11-09T09:00:10.302Z,5.23
2022-11-09T09:02:38.091Z,5.41
2022-11-09T09:05:05.903Z,5.58
2022-11-09T09:07:33.473Z,5.67
2022-11-09T09:10:01.249Z,5.65
2022-11-09T09:12:28.968Z,5.63
2022-11-09T09:14:56.642Z,5.67
2022-11-09T09:17:24.384Z,5.78
2022-11-09T09:19:51.985Z,5.95
2022-11-09T09:22:20.267Z,5.73
2022-11-09T09:24:47.864Z,5.99
2022-11-09T09:27:15.881Z,6.12
2022-11-09T09:29:43.546Z,6.17
2022-11-09T09:32:11.557Z,6.16
2022-11-09T09:34:39.266Z,6.23
2022-11-09T09:37:06.771Z,6.24
2022-11-09T09:39:34.566Z,6.12
2022-11-09T09:42:05.075Z,6.13
2022-11-09T09:44:57.483Z,6.27
2022-11-09T09:47:33.564Z,6.31
2022-11-09T09:50:06.807Z,6.33
2022-11-09T09:52:54.118Z,6.15
2022-11-09T09:55:41.101Z,6.23
2022-11-09T09:58:12.204Z,6.09
2022-11-09T10:00:39.976Z,6.12
2022-11-09T10:03:18.928Z,6.01
2022-11-09T10:06:08.861Z,5.76
2022-11-09T10:08:42.672Z,5.72
2022-11-09T10:11:50.303Z,6.02
2022-11-09T10:15:00.294Z,6.05
2022-11-09T10:17:39.976Z,6.07
2022-11-09T10:20:49.069Z,5.96
2022-11-09T10:23:25.854Z,6.06
2022-11-09T10:26:04.187Z,5.92
2022-11-09T10:29:01.212Z,6.11
2022-11-09T10:31:24.600Z,6.11
2022-11-09T10:33:58.638Z,6.18
2022-11-09T10:36:42.265Z,6.26
2022-11-09T10:39:22.025Z,6.26
2022-11-09T10:42:10.772Z,6.13
2022-11-09T10:44:57.678Z,6.06
2022-11-09T10:47:51.064Z,5.94
2022-11-09T10:50:49.760Z,6.09
2022-11-09T10:53:35.645Z,6.23
2022-11-09T10:56:22.303Z,6.24
2022-11-09T10:59:56.719Z,6.28
2022-11-09T11:02:44.269Z,6.29
2022-11-09T11:05:31.384Z,6.30
2022-11-09T11:08:31.682Z,6.25
2022-11-09T11:11:37.416Z,6.50
2022-11-09T11:14:33.629Z,6.51
2022-11-09T11:17:29.947Z,6.43
2022-11-09T11:20:34.799Z,6.36
2022-11-09T11:23:24.654Z,6.51
2022-11-09T11:26:23.368Z,6.51
2022-11-09T11:29:21.605Z,6.57
2022-11-09T11:32:10.575Z,6.72
2022-11-09T11:35:01.308Z,6.75
2022-11-09T11:38:04.439Z,6.85
2022-11-09T11:41:24.247Z,6.80
2022-11-09T11:44:23.298Z,6.73
2022-11-09T11:47:15.679Z,6.73
2022-11-09T11:50:23.264Z,7.04
2022-11-09T11:53:19.158Z,7.04
2022-11-09T11:56:27.312Z,6.91
2022-11-09T11:59:47.201Z,6.83
2022-11-09T12:03:04.444Z,6.69
2022-11-09T12:06:09.247Z,6.61
2022-11-09T12:08:58.473Z,6.61
2022-11-09T12:11:59.831Z,6.46
2022-11-09T12:14:46.674Z,6.46
2022-11-09T12:17:57.344Z,6.50
2022-11-09T12:20:53.464Z,6.42
2022-11-09T12:23:54.895Z,6.54
2022-11-09T12:27:31.671Z,6.64
2022-11-09T12:30:21.575Z,6.64
2022-11-09T12:33:19.412Z,6.46
2022-11-09T12:36:14.507Z,6.64
2022-11-09T12:39:31.849Z,6.58
2022-11-09T12:42:24.221Z,6.47
2022-11-09T12:45:32.938Z,6.32
2022-11-09T12:48:40.947Z,6.12
2022-11-09T12:51:27.072Z,6.21
2022-11-09T12:54:13.960Z,6.23
2022-11-09T12:57:06.744Z,6.20
2022-11-09T12:59:59.740Z,6.13
2022-11-09T13:02:57.233Z,6.07
2022-11-09T13:05:45.080Z,6.14
2022-11-09T13:08:31.729Z,6.19
2022-11-09T13:11:17.829Z,6.12
2022-11-09T13:14:35.213Z,6.04
2022-11-09T13:17:21.808Z,5.94
2022-11-09T13:20:54.121Z,5.87
2022-11-09T13:26:48.385Z,5.75
2022-11-09T13:29:40.064Z,5.62
2022-11-09T13:32:33.768Z,5.65
2022-11-09T13:35:41.861Z,5.65
2022-11-09T13:38:31.120Z,5.64
2022-11-09T13:41:32.150Z,5.63
2022-11-09T13:44:20.832Z,5.61
2022-11-09T13:47:23.266Z,5.58
2022-11-09T13:50:16.892Z,5.54
2022-11-09T13:53:03.799Z,5.47
2022-11-09T13:55:49.492Z,5.41
2022-11-09T13:58:38.120Z,5.37
2022-11-09T14:01:37.023Z,5.31
2022-11-09T14:04:51.851Z,5.24
2022-11-09T14:07:38.060Z,5.19
2022-11-09T14:10:26.753Z,5.12
2022-11-09T14:13:38.145Z,5.07
2022-11-09T14:16:30.952Z,4.98
2022-11-09T14:19:32.373Z,4.95
2022-11-09T14:22:20.364Z,4.90
2022-11-09T14:25:21.390Z,4.83
2022-11-09T14:28:29.587Z,4.75
2022-11-09T14:31:26.675Z,4.65
2022-11-09T14:34:15.290Z,4.54
2022-11-09T14:37:04.837Z,4.44
2022-11-09T14:39:54.239Z,4.38
2022-11-09T14:42:46.032Z,4.35
2022-11-09T14:45:32.595Z,4.29
2022-11-09T14:48:19.990Z,4.18
2022-11-09T14:51:07.440Z,4.12
2022-11-09T14:53:53.695Z,4.05
2022-11-09T14:57:00.141Z,3.97
2022-11-09T14:59:46.481Z,3.89
2022-11-09T15:02:32.988Z,3.79
2022-11-09T15:05:48.344Z,3.66
2022-11-09T15:08:35.018Z,3.53
2022-11-09T15:11:21.977Z,3.37
2022-11-09T15:14:17.351Z,3.25
2022-11-09T15:17:17.328Z,3.08
2022-11-09T15:20:09.751Z,2.93
2022-11-09T15:23:06.737Z,2.77
2022-11-09T15:25:55.095Z,2.64
2022-11-09T15:28:45.777Z,2.52
2022-11-09T15:32:16.733Z,2.39
2022-11-09T15:35:02.787Z,2.29
2022-11-09T15:37:51.194Z,2.18
2022-11-09T15:40:39.078Z,2.09
2022-11-09T15:43:25.573Z,1.97
2022-11-09T15:46:24.291Z,1.89
2022-11-09T15:49:31.126Z,1.77
2022-11-09T15:52:17.973Z,1.68
2022-11-09T15:55:04.702Z,1.63
2022-11-09T15:57:50.811Z,1.60
2022-11-09T16:00:37.775Z,1.55
2022-11-09T16:03:24.173Z,1.49
2022-11-09T16:06:11.207Z,1.43
2022-11-09T16:08:57.035Z,1.31
2022-11-09T16:11:43.353Z,1.24
2022-11-09T16:14:31.881Z,1.19
2022-11-09T16:17:22.151Z,1.14
2022-11-09T16:20:08.843Z,1.11
2022-11-09T16:22:55.565Z,1.06
2022-11-09T16:25:43.496Z,0.99
2022-11-09T16:28:30.236Z,0.94
2022-11-09T16:31:19.110Z,0.87
2022-11-09T16:34:08.544Z,0.84
2022-11-09T16:36:56.993Z,0.81
2022-11-09T16:39:43.583Z,0.80
2022-11-09T16:42:30.037Z,0.79
2022-11-09T16:45:16.296Z,0.80
2022-11-09T16:48:03.391Z,0.79
2022-11-09T16:50:49.772Z,0.73
2022-11-09T16:53:36.222Z,0.70
2022-11-09T16:56:22.226Z,0.67
2022-11-09T16:59:08.685Z,0.62
2022-11-09T17:01:56.213Z,0.59
2022-11-09T17:04:42.573Z,0.57
2022-11-09T17:07:29.301Z,0.51
2022-11-09T17:10:15.825Z,0.48
2022-11-09T17:13:01.962Z,0.45
2022-11-09T17:15:49.539Z,0.44
2022-11-09T17:18:37.842Z,0.44
2022-11-09T17:21:25.658Z,0.41
2022-11-09T17:24:11.971Z,0.33
2022-11-09T17:27:00.250Z,0.27
2022-11-09T17:29:47.780Z,0.24
2022-11-09T17:32:35.477Z,0.25
2022-11-09T17:35:21.841Z,0.22
2022-11-09T17:38:08.232Z,0.22
2022-11-09T17:40:58.300Z,0.21
2022-11-09T17:43:45.907Z,0.19
2022-11-09T17:46:32.640Z,0.18
2022-11-09T17:49:18.697Z,0.16
2022-11-09T17:52:05.067Z,0.14
2022-11-09T17:54:51.193Z,0.06
2022-11-09T17:57:37.681Z,0.04
2022-11-09T18:00:24.145Z,0.03
2022-11-09T18:03:12.961Z,0.02
2022-11-09T18:05:59.152Z,-0.09
2022-11-09T18:08:58.268Z,-0.13
2022-11-09T18:11:52.837Z,-0.18
2022-11-09T18:14:39.484Z,-0.19
2022-11-09T18:17:25.486Z,-0.24
2022-11-09T18:20:11.612Z,-0.27
2022-11-09T18:22:58.124Z,-0.25
2022-11-09T18:25:44.212Z,-0.24
2022-11-09T18:28:30.653Z,-0.24
2022-11-09T18:31:17.013Z,-0.30
2022-11-09T18:34:03.188Z,-0.31
2022-11-09T18:36:49.698Z,-0.30
2022-11-09T18:39:36.746Z,-0.31
2022-11-09T18:42:23.176Z,-0.31
2022-11-09T18:45:10.108Z,-0.33
2022-11-09T18:47:56.972Z,-0.35
2022-11-09T18:50:43.317Z,-0.32
2022-11-09T18:53:36.188Z,-0.34
2022-11-09T18:56:24.153Z,-0.43
2022-11-09T18:59:12.574Z,-0.49
2022-11-09T19:01:59.059Z,-0.49
2022-11-09T19:04:46.186Z,-0.51
2022-11-09T19:07:33.463Z,-0.52
2022-11-09T19:10:20.434Z,-0.54
2022-11-09T19:13:06.556Z,-0.55
2022-11-09T19:15:58.142Z,-0.54
2022-11-09T19:18:45.166Z,-0.52
2022-11-09T19:21:35.995Z,-0.47
2022-11-09T19:24:25.034Z,-0.43
2022-11-09T19:27:11.261Z,-0.34
2022-11-09T19:29:58.162Z,-0.28
2022-11-09T19:33:40.840Z,-0.18
2022-11-09T19:36:30.720Z,-0.15
2022-11-09T19:39:19.458Z,-0.12
2022-11-09T19:42:06.150Z,-0.07
2022-11-09T19:44:56.217Z,-0.03
2022-11-09T19:47:43.135Z,-0.03
2022-11-09T19:50:29.577Z,-0.05
2022-11-09T19:53:16.541Z,-0.03
2022-11-09T19:56:04.551Z,-0.03
2022-11-09T19:58:52.319Z,-0.02
2022-11-09T20:01:38.438Z,-0.04
2022-11-09T20:04:24.588Z,-0.03
2022-11-09T20:07:10.830Z,-0.01
2022-11-09T20:09:56.941Z,0.01
2022-11-09T20:12:52.301Z,0.03
2022-11-09T20:15:38.562Z,0.05
2022-11-09T20:18:25.476Z,0.10
2022-11-09T20:21:11.793Z,0.08
2022-11-09T20:24:00.901Z,0.09
2022-11-09T20:26:46.895Z,0.10
2022-11-09T20:29:33.385Z,0.11
2022-11-09T20:32:21.644Z,0.12
2022-11-09T20:35:08.783Z,0.08
2022-11-09T20:37:54.747Z,0.03
2022-11-09T20:40:41.951Z,-0.02
2022-11-09T20:43:27.900Z,-0.06
2022-11-09T20:46:19.328Z,-0.09
2022-11-09T20:49:05.400Z,-0.11
2022-11-09T20:51:51.638Z,-0.17
2022-11-09T20:54:38.899Z,-0.26
2022-11-09T20:57:25.423Z,-0.26
2022-11-09T21:00:12.724Z,-0.24
2022-11-09T21:02:59.434Z,-0.22
2022-11-09T21:05:50.441Z,-0.23
2022-11-09T21:08:40.782Z,-0.23
2022-11-09T21:11:28.883Z,-0.22
2022-11-09T21:14:16.610Z,-0.21
2022-11-09T21:17:02.973Z,-0.23
2022-11-09T21:19:49.164Z,-0.25
2022-11-09T21:22:53.790Z,-0.23
2022-11-09T21:26:00.566Z,-0.26
2022-11-09T21:29:06.220Z,-0.30
2022-11-09T21:31:52.165Z,-0.32
2022-11-09T21:34:38.634Z,-0.34
2022-11-09T21:37:24.735Z,-0.31
2022-11-09T21:40:11.275Z,-0.28
2022-11-09T21:42:57.479Z,-0.28
2022-11-09T21:45:49.103Z,-0.29
2022-11-09T21:48:35.180Z,-0.28
2022-11-09T21:51:36.363Z,-0.30
2022-11-09T21:54:22.428Z,-0.32
2022-11-09T21:57:08.336Z,-0.35
2022-11-09T21:59:54.434Z,-0.35
2022-11-09T22:02:41.962Z,-0.37
2022-11-09T22:05:28.080Z,-0.39
2022-11-09T22:08:14.769Z,-0.45
2022-11-09T22:11:12.086Z,-0.43
2022-11-09T22:14:16.548Z,-0.46
2022-11-09T22:17:06.307Z,-0.50
2022-11-09T22:20:10.700Z,-0.49
2022-11-09T22:22:56.517Z,-0.49
2022-11-09T22:25:47.786Z,-0.50
2022-11-09T22:28:34.111Z,-0.50
2022-11-09T22:31:21.067Z,-0.51
2022-11-09T22:34:07.053Z,-0.52
2022-11-09T22:36:54.027Z,-0.51
2022-11-09T22:39:46.810Z,-0.55
2022-11-09T22:42:33.606Z,-0.54
2022-11-09T22:45:19.710Z,-0.58
2022-11-09T22:48:05.820Z,-0.58
2022-11-09T22:51:12.359Z,-0.57
2022-11-09T22:54:00.720Z,-0.60
2022-11-09T22:56:47.013Z,-0.55
2022-11-09T22:59:33.848Z,-0.52
2022-11-09T23:02:20.092Z,-0.54
2022-11-09T23:05:06.914Z,-0.60
2022-11-09T23:07:55.086Z,-0.69
2022-11-09T23:11:22.665Z,-0.68
2022-11-09T23:14:08.813Z,-0.79
2022-11-09T23:16:54.792Z,-0.79
2022-11-09T23:19:40.966Z,-0.68
2022-11-09T23:22:27.538Z,-0.60
2022-11-09T23:25:33.288Z,-0.58
2022-11-09T23:28:19.558Z,-0.58
2022-11-09T23:31:08.048Z,-0.74
2022-11-09T23:33:55.898Z,-0.73
2022-11-09T23:36:43.605Z,-0.71
2022-11-09T23:39:29.818Z,-0.67
2022-11-09T23:42:16.240Z,-0.63
2022-11-09T23:45:03.778Z,-0.60
2022-11-09T23:47:49.613Z,-0.61
2022-11-09T23:50:38.184Z,-0.67
2022-11-09T23:53:24.736Z,-0.77
2022-11-09T23:56:11.873Z,-0.75
2022-11-09T23:58:57.885Z,-0.87
